Página principal
METAR-TAF:

METAR-TAF

Aeroportos :

Ilha da Boa Vista, Cabo Verde

Aeroporto Internacional Aristides Pereira

latitude: 16-08-15N, longitude: 22-53-22W, altura: 21 m

Observação actual do tempo

O boletim foi feito há 1 hora e 29 minutos, às 19:00 UTC
Vento 19 kt de nor-nordeste
Temperatura 24°C
Humidade 78%
Pressão 1014 hPa
Visibilidade 10 km ou mais
Nuvens fragmentadasa uma altura de 1400 ft

METAR: GVBA 131900Z 03019KT 9999 BKN014 24/20 Q1014 NOSIG

Hora: 19:29 (20:29 UTC)

Previsão

O boletim foi feito há 3 horas e 29 minutos, às 17:00 UTC
Previsão válida de 13 às 18 UTC a 14 às 18 UTC
Vento 18 kt de nor-nordeste
Visibilidade 10 km ou mais
Nuvens dispersasa uma altura de 1400 ft
Probabilidade 40% :
Temporariamente
de 14 às 10 UTC a 14 às 18 UTC
Vento 18 kt de nor-nordeste com rajadas de 28 kt

TAF: GVBA 131700Z 1318/1418 02018KT 9999 SCT014 PROB40 TEMPO 1410/1418 02018G28KT

Observações e previsões do tempo de mais de 4000 aeroportos (mensagens METAR e TAF).

As estações disponíveis são os pontos amarelos e vermelhos sobre o mapa.

Mova o rato sobre o mapa para ver o nome da estação.

Depois clique no ponto para visualizar as observações e previsões meteorológicas.

Para alterar o mapa : clique nos botões verdes com uma cruz preta para aumentar o zoom; no botão verde com uma pitada de zoom; ou nas setas verdes para mapas adjacentes.


METAR-TAF: